Aviation Digital Data Service (ADDS)

Output produced by METARs form (0610 UTC 25 June 2018)
found at http://www.aviationweather.gov/adds/metars/
 
MGGT 250600Z 36010KT 9999 BKN014 18/17 Q1026 A3030
TAF MGGT 2506/2606 36008KT 9999 SCT016 SCT080 TX26/2520Z TN17/2512Z 
     TEMPO 2506/2606 7000 RADZ BKN014 
     BECMG 2515/2517 SCT018 
     TEMPO 2520/2524 18008KT 8000 VCTSRA SCT018TCU FEW025CB 
     BECMG 2601/2603 VRB03KT SCT016
       
MGPB 250600Z 00000KT 9999 FEW017 27/25 Q1013 A2991
TAF MGPB 2506/2606 00000KT 9999 SCT016 TX31/2520Z TN22/2512Z 
     TEMPO 2506/2508 8000 TSRA FEW025CB 
     BECMG 2515/2517 04008KT SCT018 
     TEMPO 2521/2606 8000 VCTSRA FEW025CB 
     BECMG 2601/2603 00000KT SCT016
       
TAF MGSJ 2506/2606 00000KT CAVOK TX33/2520Z TN25/2512Z 
     BECMG 2514/2516 18008KT 
     BECMG 2518/2520 FEW018 
     BECMG 2601/2603 00000KT CAVOK